STD weather

Mayor Buenaventura Vivas International Airport
Santo Domingo, Tachira, Venezuela

Public forecast

Using degrees Celsius for public forecast. Weather courtesy of forecast.io.

Current aviation weather report (METAR) for Mayor Buenaventura Vivas International Airport

Report is more than 6 hours old.

Retrieved 2018/06/14 13:00 UTC (1 year ago):

SVSO 141300Z /////KT 9999 BKN020 24/22 Q1016

Closest aviation forecast (TAF) to Mayor Buenaventura Vivas International Airport

Closest forecast is San Antonio Del Tachira Airport, 29.2 nm (54.1 km) NW. Retrieved 2019/10/22 12:03 UTC (3 hours ago):

TAF TAF SVSA 221000Z 2212/2312 00000KT 9999 BKN020 TX31/19Z TN19/08Z TEMPO 2212/2214 14005KT 8000 DZ BKN020